sensor_id;sensor_type;location;lat;lon;timestamp;P1;durP1;ratioP1;P2;durP2;ratioP2
79677;SDS011;69145;45.544;10.214;2023-05-07T00:01:49;19.27;;;16.33;;
79677;SDS011;69145;45.544;10.214;2023-05-07T00:04:14;19.53;;;16.53;;
79677;SDS011;69145;45.544;10.214;2023-05-07T00:06:42;18.95;;;16.67;;
79677;SDS011;69145;45.544;10.214;2023-05-07T00:09:08;20.02;;;16.33;;
79677;SDS011;69145;45.544;10.214;2023-05-07T00:11:33;19.00;;;17.00;;
79677;SDS011;69145;45.544;10.214;2023-05-07T00:13:59;19.63;;;17.50;;
79677;SDS011;69145;45.544;10.214;2023-05-07T00:16:25;20.90;;;16.55;;
79677;SDS011;69145;45.544;10.214;2023-05-07T00:18:52;19.25;;;15.77;;
79677;SDS011;69145;45.544;10.214;2023-05-07T00:21:18;18.25;;;15.55;;
79677;SDS011;69145;45.544;10.214;2023-05-07T00:23:43;16.63;;;14.43;;
79677;SDS011;69145;45.544;10.214;2023-05-07T00:26:09;19.55;;;16.20;;
79677;SDS011;69145;45.544;10.214;2023-05-07T00:28:34;19.10;;;16.50;;
79677;SDS011;69145;45.544;10.214;2023-05-07T00:31:03;20.13;;;17.00;;
79677;SDS011;69145;45.544;10.214;2023-05-07T00:33:28;18.95;;;15.80;;
79677;SDS011;69145;45.544;10.214;2023-05-07T00:35:54;18.67;;;16.30;;
79677;SDS011;69145;45.544;10.214;2023-05-07T00:38:19;21.23;;;17.58;;
79677;SDS011;69145;45.544;10.214;2023-05-07T00:40:45;18.77;;;16.30;;
79677;SDS011;69145;45.544;10.214;2023-05-07T00:43:10;19.90;;;16.10;;
79677;SDS011;69145;45.544;10.214;2023-05-07T00:45:37;19.00;;;17.00;;
79677;SDS011;69145;45.544;10.214;2023-05-07T00:48:03;21.23;;;18.23;;
79677;SDS011;69145;45.544;10.214;2023-05-07T00:50:29;21.80;;;18.00;;
79677;SDS011;69145;45.544;10.214;2023-05-07T00:52:55;21.25;;;18.05;;
79677;SDS011;69145;45.544;10.214;2023-05-07T00:55:21;21.67;;;17.50;;
79677;SDS011;69145;45.544;10.214;2023-05-07T00:57:47;21.80;;;16.80;;
79677;SDS011;69145;45.544;10.214;2023-05-07T01:00:14;19.95;;;16.85;;
79677;SDS011;69145;45.544;10.214;2023-05-07T01:02:40;19.70;;;16.65;;
79677;SDS011;69145;45.544;10.214;2023-05-07T01:05:06;18.95;;;16.63;;
79677;SDS011;69145;45.544;10.214;2023-05-07T01:07:34;21.58;;;17.95;;
79677;SDS011;69145;45.544;10.214;2023-05-07T01:10:02;21.75;;;17.88;;
79677;SDS011;69145;45.544;10.214;2023-05-07T01:12:29;21.35;;;16.80;;
79677;SDS011;69145;45.544;10.214;2023-05-07T01:14:56;22.15;;;17.90;;
79677;SDS011;69145;45.544;10.214;2023-05-07T01:17:22;21.20;;;17.75;;
79677;SDS011;69145;45.544;10.214;2023-05-07T01:19:48;19.88;;;17.50;;
79677;SDS011;69145;45.544;10.214;2023-05-07T01:22:14;21.33;;;17.30;;
79677;SDS011;69145;45.544;10.214;2023-05-07T01:24:45;21.92;;;17.20;;
79677;SDS011;69145;45.544;10.214;2023-05-07T01:27:11;22.33;;;18.15;;
79677;SDS011;69145;45.544;10.214;2023-05-07T01:29:36;19.87;;;16.20;;
79677;SDS011;69145;45.544;10.214;2023-05-07T01:32:01;21.03;;;17.40;;
79677;SDS011;69145;45.544;10.214;2023-05-07T01:34:30;20.02;;;16.85;;
79677;SDS011;69145;45.544;10.214;2023-05-07T01:36:57;19.77;;;17.02;;
79677;SDS011;69145;45.544;10.214;2023-05-07T01:39:24;19.60;;;16.42;;
79677;SDS011;69145;45.544;10.214;2023-05-07T01:41:51;21.95;;;18.42;;
79677;SDS011;69145;45.544;10.214;2023-05-07T01:44:19;21.98;;;17.25;;
79677;SDS011;69145;45.544;10.214;2023-05-07T01:46:45;20.10;;;15.95;;
79677;SDS011;69145;45.544;10.214;2023-05-07T01:49:12;18.95;;;15.95;;
79677;SDS011;69145;45.544;10.214;2023-05-07T01:51:37;20.53;;;15.77;;
79677;SDS011;69145;45.544;10.214;2023-05-07T01:54:05;20.17;;;17.08;;
79677;SDS011;69145;45.544;10.214;2023-05-07T01:56:30;20.73;;;17.55;;
79677;SDS011;69145;45.544;10.214;2023-05-07T01:58:56;20.48;;;17.38;;
79677;SDS011;69145;45.544;10.214;2023-05-07T02:01:21;18.38;;;15.48;;
79677;SDS011;69145;45.544;10.214;2023-05-07T02:03:47;19.60;;;16.53;;
79677;SDS011;69145;45.544;10.214;2023-05-07T02:06:12;20.38;;;18.05;;
79677;SDS011;69145;45.544;10.214;2023-05-07T02:08:37;21.20;;;16.88;;
79677;SDS011;69145;45.544;10.214;2023-05-07T02:11:03;19.05;;;16.95;;
79677;SDS011;69145;45.544;10.214;2023-05-07T02:13:29;22.58;;;17.30;;
79677;SDS011;69145;45.544;10.214;2023-05-07T02:15:55;21.10;;;16.73;;
79677;SDS011;69145;45.544;10.214;2023-05-07T02:18:21;20.52;;;16.63;;
79677;SDS011;69145;45.544;10.214;2023-05-07T02:20:46;20.87;;;17.80;;
79677;SDS011;69145;45.544;10.214;2023-05-07T02:23:11;21.03;;;17.20;;
79677;SDS011;69145;45.544;10.214;2023-05-07T02:25:37;19.37;;;15.53;;
79677;SDS011;69145;45.544;10.214;2023-05-07T02:28:03;19.50;;;16.70;;
79677;SDS011;69145;45.544;10.214;2023-05-07T02:30:28;19.05;;;16.55;;
79677;SDS011;69145;45.544;10.214;2023-05-07T02:32:53;18.97;;;16.40;;
79677;SDS011;69145;45.544;10.214;2023-05-07T02:35:19;18.40;;;15.07;;
79677;SDS011;69145;45.544;10.214;2023-05-07T02:37:44;18.55;;;16.13;;
79677;SDS011;69145;45.544;10.214;2023-05-07T02:40:10;20.73;;;16.85;;
79677;SDS011;69145;45.544;10.214;2023-05-07T02:42:36;21.90;;;17.52;;
79677;SDS011;69145;45.544;10.214;2023-05-07T02:45:01;24.00;;;17.50;;
79677;SDS011;69145;45.544;10.214;2023-05-07T02:47:26;21.20;;;16.80;;
79677;SDS011;69145;45.544;10.214;2023-05-07T02:49:53;21.75;;;17.80;;
79677;SDS011;69145;45.544;10.214;2023-05-07T02:52:19;19.55;;;16.85;;
79677;SDS011;69145;45.544;10.214;2023-05-07T02:54:44;18.80;;;15.27;;
79677;SDS011;69145;45.544;10.214;2023-05-07T02:57:10;17.33;;;15.43;;
79677;SDS011;69145;45.544;10.214;2023-05-07T02:59:35;21.23;;;17.00;;
79677;SDS011;69145;45.544;10.214;2023-05-07T03:02:00;19.80;;;16.13;;
79677;SDS011;69145;45.544;10.214;2023-05-07T03:04:26;19.67;;;16.33;;
79677;SDS011;69145;45.544;10.214;2023-05-07T03:06:51;19.10;;;16.90;;
79677;SDS011;69145;45.544;10.214;2023-05-07T03:09:16;17.10;;;14.50;;
79677;SDS011;69145;45.544;10.214;2023-05-07T03:11:42;17.67;;;14.20;;
79677;SDS011;69145;45.544;10.214;2023-05-07T03:14:07;15.95;;;13.27;;
79677;SDS011;69145;45.544;10.214;2023-05-07T03:16:32;16.33;;;12.37;;
79677;SDS011;69145;45.544;10.214;2023-05-07T03:18:58;12.63;;;10.40;;
79677;SDS011;69145;45.544;10.214;2023-05-07T03:21:23;12.10;;;8.65;;
79677;SDS011;69145;45.544;10.214;2023-05-07T03:23:49;9.73;;;7.65;;
79677;SDS011;69145;45.544;10.214;2023-05-07T03:26:14;10.38;;;7.05;;
79677;SDS011;69145;45.544;10.214;2023-05-07T03:28:39;9.00;;;6.15;;
79677;SDS011;69145;45.544;10.214;2023-05-07T03:31:05;6.57;;;5.20;;
79677;SDS011;69145;45.544;10.214;2023-05-07T03:33:32;8.00;;;4.40;;
79677;SDS011;69145;45.544;10.214;2023-05-07T03:35:58;6.13;;;4.05;;
79677;SDS011;69145;45.544;10.214;2023-05-07T03:38:23;6.03;;;4.03;;
79677;SDS011;69145;45.544;10.214;2023-05-07T03:40:49;5.43;;;3.85;;
79677;SDS011;69145;45.544;10.214;2023-05-07T03:43:14;5.45;;;3.60;;
79677;SDS011;69145;45.544;10.214;2023-05-07T03:45:40;6.30;;;3.45;;
79677;SDS011;69145;45.544;10.214;2023-05-07T03:48:05;4.68;;;2.83;;
79677;SDS011;69145;45.544;10.214;2023-05-07T03:50:30;3.87;;;2.70;;
79677;SDS011;69145;45.544;10.214;2023-05-07T03:52:56;6.35;;;2.65;;
79677;SDS011;69145;45.544;10.214;2023-05-07T03:55:21;5.27;;;3.20;;
79677;SDS011;69145;45.544;10.214;2023-05-07T03:57:46;5.22;;;2.95;;
79677;SDS011;69145;45.544;10.214;2023-05-07T04:00:12;6.40;;;2.77;;
79677;SDS011;69145;45.544;10.214;2023-05-07T04:02:38;4.88;;;3.03;;
79677;SDS011;69145;45.544;10.214;2023-05-07T04:05:03;5.30;;;3.00;;
79677;SDS011;69145;45.544;10.214;2023-05-07T04:07:29;4.18;;;2.55;;
79677;SDS011;69145;45.544;10.214;2023-05-07T04:09:55;4.07;;;2.70;;
79677;SDS011;69145;45.544;10.214;2023-05-07T04:12:20;5.00;;;2.67;;
79677;SDS011;69145;45.544;10.214;2023-05-07T04:14:46;4.90;;;2.77;;
79677;SDS011;69145;45.544;10.214;2023-05-07T04:17:11;4.40;;;2.50;;
79677;SDS011;69145;45.544;10.214;2023-05-07T04:19:36;4.57;;;2.30;;
79677;SDS011;69145;45.544;10.214;2023-05-07T04:22:02;5.13;;;2.60;;
79677;SDS011;69145;45.544;10.214;2023-05-07T04:24:27;4.30;;;2.97;;
79677;SDS011;69145;45.544;10.214;2023-05-07T04:26:52;4.87;;;2.50;;
79677;SDS011;69145;45.544;10.214;2023-05-07T04:29:18;5.22;;;2.42;;
79677;SDS011;69145;45.544;10.214;2023-05-07T04:31:43;4.25;;;2.67;;
79677;SDS011;69145;45.544;10.214;2023-05-07T04:34:09;5.15;;;2.30;;
79677;SDS011;69145;45.544;10.214;2023-05-07T04:36:37;3.80;;;2.22;;
79677;SDS011;69145;45.544;10.214;2023-05-07T04:39:03;4.10;;;2.28;;
79677;SDS011;69145;45.544;10.214;2023-05-07T04:41:28;6.00;;;2.33;;
79677;SDS011;69145;45.544;10.214;2023-05-07T04:43:54;4.43;;;1.95;;
79677;SDS011;69145;45.544;10.214;2023-05-07T04:46:20;4.57;;;2.40;;
79677;SDS011;69145;45.544;10.214;2023-05-07T04:48:45;4.53;;;2.40;;
79677;SDS011;69145;45.544;10.214;2023-05-07T04:51:11;3.50;;;2.37;;
79677;SDS011;69145;45.544;10.214;2023-05-07T04:53:36;3.83;;;2.67;;
79677;SDS011;69145;45.544;10.214;2023-05-07T04:56:02;4.20;;;2.80;;
79677;SDS011;69145;45.544;10.214;2023-05-07T04:58:28;5.25;;;2.85;;
79677;SDS011;69145;45.544;10.214;2023-05-07T05:00:56;4.68;;;2.53;;
79677;SDS011;69145;45.544;10.214;2023-05-07T05:03:22;5.15;;;2.88;;
79677;SDS011;69145;45.544;10.214;2023-05-07T05:05:51;5.32;;;3.17;;
79677;SDS011;69145;45.544;10.214;2023-05-07T05:08:27;5.57;;;3.13;;
79677;SDS011;69145;45.544;10.214;2023-05-07T05:10:52;4.30;;;3.13;;
79677;SDS011;69145;45.544;10.214;2023-05-07T05:13:17;5.43;;;2.90;;
79677;SDS011;69145;45.544;10.214;2023-05-07T05:15:43;4.65;;;3.20;;
79677;SDS011;69145;45.544;10.214;2023-05-07T05:18:08;4.53;;;2.95;;
79677;SDS011;69145;45.544;10.214;2023-05-07T05:20:34;4.57;;;2.97;;
79677;SDS011;69145;45.544;10.214;2023-05-07T05:22:59;4.73;;;2.90;;
79677;SDS011;69145;45.544;10.214;2023-05-07T05:25:24;4.68;;;2.63;;
79677;SDS011;69145;45.544;10.214;2023-05-07T05:27:50;4.30;;;2.40;;
79677;SDS011;69145;45.544;10.214;2023-05-07T05:30:15;5.47;;;2.60;;
79677;SDS011;69145;45.544;10.214;2023-05-07T05:32:40;3.73;;;2.80;;
79677;SDS011;69145;45.544;10.214;2023-05-07T05:35:06;4.73;;;2.70;;
79677;SDS011;69145;45.544;10.214;2023-05-07T05:37:31;5.72;;;2.95;;
79677;SDS011;69145;45.544;10.214;2023-05-07T05:39:57;5.32;;;2.60;;
79677;SDS011;69145;45.544;10.214;2023-05-07T05:42:22;4.93;;;2.30;;
79677;SDS011;69145;45.544;10.214;2023-05-07T05:44:48;3.92;;;2.10;;
79677;SDS011;69145;45.544;10.214;2023-05-07T05:47:14;3.25;;;2.22;;
79677;SDS011;69145;45.544;10.214;2023-05-07T05:49:39;4.65;;;2.13;;
79677;SDS011;69145;45.544;10.214;2023-05-07T05:52:05;5.38;;;2.40;;
79677;SDS011;69145;45.544;10.214;2023-05-07T05:54:30;4.88;;;2.58;;
79677;SDS011;69145;45.544;10.214;2023-05-07T05:56:55;6.10;;;2.20;;
79677;SDS011;69145;45.544;10.214;2023-05-07T05:59:21;3.95;;;2.53;;
79677;SDS011;69145;45.544;10.214;2023-05-07T06:01:47;3.63;;;2.10;;
79677;SDS011;69145;45.544;10.214;2023-05-07T06:04:12;3.33;;;2.17;;
79677;SDS011;69145;45.544;10.214;2023-05-07T06:06:45;4.55;;;2.60;;
79677;SDS011;69145;45.544;10.214;2023-05-07T06:09:10;5.33;;;2.53;;
79677;SDS011;69145;45.544;10.214;2023-05-07T06:11:36;4.65;;;2.55;;
79677;SDS011;69145;45.544;10.214;2023-05-07T06:14:04;4.63;;;2.30;;
79677;SDS011;69145;45.544;10.214;2023-05-07T06:16:30;4.90;;;2.63;;
79677;SDS011;69145;45.544;10.214;2023-05-07T06:18:55;4.57;;;2.20;;
79677;SDS011;69145;45.544;10.214;2023-05-07T06:21:23;5.40;;;2.90;;
79677;SDS011;69145;45.544;10.214;2023-05-07T06:23:48;4.40;;;2.60;;
79677;SDS011;69145;45.544;10.214;2023-05-07T06:26:14;5.55;;;2.88;;
79677;SDS011;69145;45.544;10.214;2023-05-07T06:28:39;5.20;;;3.27;;
79677;SDS011;69145;45.544;10.214;2023-05-07T06:31:15;5.28;;;3.00;;
79677;SDS011;69145;45.544;10.214;2023-05-07T06:36:07;4.75;;;2.50;;
79677;SDS011;69145;45.544;10.214;2023-05-07T06:38:32;4.53;;;3.15;;
79677;SDS011;69145;45.544;10.214;2023-05-07T06:40:58;5.27;;;2.83;;
79677;SDS011;69145;45.544;10.214;2023-05-07T06:43:26;4.60;;;2.92;;
79677;SDS011;69145;45.544;10.214;2023-05-07T06:45:51;4.63;;;3.23;;
79677;SDS011;69145;45.544;10.214;2023-05-07T06:48:16;4.77;;;2.87;;
79677;SDS011;69145;45.544;10.214;2023-05-07T06:50:42;4.83;;;2.40;;
79677;SDS011;69145;45.544;10.214;2023-05-07T06:53:07;5.53;;;2.83;;
79677;SDS011;69145;45.544;10.214;2023-05-07T06:55:32;5.28;;;3.25;;
79677;SDS011;69145;45.544;10.214;2023-05-07T06:57:58;4.18;;;2.92;;
79677;SDS011;69145;45.544;10.214;2023-05-07T07:00:26;4.72;;;2.90;;
79677;SDS011;69145;45.544;10.214;2023-05-07T07:02:54;5.50;;;2.95;;
79677;SDS011;69145;45.544;10.214;2023-05-07T07:05:20;6.35;;;3.35;;
79677;SDS011;69145;45.544;10.214;2023-05-07T07:07:45;4.90;;;3.17;;
79677;SDS011;69145;45.544;10.214;2023-05-07T07:10:17;6.22;;;3.30;;
79677;SDS011;69145;45.544;10.214;2023-05-07T07:12:45;4.35;;;2.92;;
79677;SDS011;69145;45.544;10.214;2023-05-07T07:15:10;4.57;;;2.83;;
79677;SDS011;69145;45.544;10.214;2023-05-07T07:17:36;4.18;;;2.72;;
79677;SDS011;69145;45.544;10.214;2023-05-07T07:20:02;5.40;;;2.63;;
79677;SDS011;69145;45.544;10.214;2023-05-07T07:22:28;5.85;;;3.15;;
79677;SDS011;69145;45.544;10.214;2023-05-07T07:24:54;4.88;;;2.90;;
79677;SDS011;69145;45.544;10.214;2023-05-07T07:27:19;4.47;;;2.60;;
79677;SDS011;69145;45.544;10.214;2023-05-07T07:29:44;4.50;;;2.70;;
79677;SDS011;69145;45.544;10.214;2023-05-07T07:32:11;4.73;;;2.50;;
79677;SDS011;69145;45.544;10.214;2023-05-07T07:34:36;4.65;;;3.17;;
79677;SDS011;69145;45.544;10.214;2023-05-07T07:37:01;6.07;;;2.93;;
79677;SDS011;69145;45.544;10.214;2023-05-07T07:39:30;4.60;;;3.15;;
79677;SDS011;69145;45.544;10.214;2023-05-07T07:41:59;6.55;;;4.05;;
79677;SDS011;69145;45.544;10.214;2023-05-07T07:59:25;11.15;;;8.13;;
79677;SDS011;69145;45.544;10.214;2023-05-07T08:06:59;12.70;;;10.63;;
79677;SDS011;69145;45.544;10.214;2023-05-07T08:09:25;15.32;;;12.05;;
79677;SDS011;69145;45.544;10.214;2023-05-07T08:11:50;12.90;;;10.25;;
79677;SDS011;69145;45.544;10.214;2023-05-07T08:14:16;18.05;;;14.25;;
79677;SDS011;69145;45.544;10.214;2023-05-07T08:16:41;14.93;;;10.02;;
79677;SDS011;69145;45.544;10.214;2023-05-07T08:19:07;17.93;;;13.33;;
79677;SDS011;69145;45.544;10.214;2023-05-07T08:21:32;17.40;;;13.30;;
79677;SDS011;69145;45.544;10.214;2023-05-07T08:23:57;14.35;;;11.25;;
79677;SDS011;69145;45.544;10.214;2023-05-07T08:26:23;17.90;;;12.23;;
79677;SDS011;69145;45.544;10.214;2023-05-07T08:28:48;19.43;;;13.63;;
79677;SDS011;69145;45.544;10.214;2023-05-07T08:31:13;18.70;;;14.93;;
79677;SDS011;69145;45.544;10.214;2023-05-07T08:33:39;16.38;;;13.73;;
79677;SDS011;69145;45.544;10.214;2023-05-07T08:41:20;17.60;;;14.18;;
79677;SDS011;69145;45.544;10.214;2023-05-07T08:43:49;18.77;;;14.23;;
79677;SDS011;69145;45.544;10.214;2023-05-07T08:46:19;17.50;;;14.27;;
79677;SDS011;69145;45.544;10.214;2023-05-07T08:49:28;17.60;;;14.50;;
79677;SDS011;69145;45.544;10.214;2023-05-07T08:51:35;18.02;;;14.38;;
79677;SDS011;69145;45.544;10.214;2023-05-07T08:54:03;19.58;;;15.27;;
79677;SDS011;69145;45.544;10.214;2023-05-07T08:56:29;17.80;;;13.85;;
79677;SDS011;69145;45.544;10.214;2023-05-07T08:58:55;19.13;;;14.95;;
79677;SDS011;69145;45.544;10.214;2023-05-07T09:01:23;21.08;;;13.75;;
79677;SDS011;69145;45.544;10.214;2023-05-07T09:03:49;21.90;;;15.15;;
79677;SDS011;69145;45.544;10.214;2023-05-07T09:06:15;16.70;;;12.77;;
79677;SDS011;69145;45.544;10.214;2023-05-07T09:08:48;18.25;;;14.60;;
79677;SDS011;69145;45.544;10.214;2023-05-07T09:11:26;18.52;;;13.35;;
79677;SDS011;69145;45.544;10.214;2023-05-07T09:14:12;19.58;;;14.73;;
79677;SDS011;69145;45.544;10.214;2023-05-07T09:16:37;20.08;;;14.75;;
79677;SDS011;69145;45.544;10.214;2023-05-07T09:19:03;17.63;;;13.45;;
79677;SDS011;69145;45.544;10.214;2023-05-07T09:21:32;19.77;;;14.18;;
79677;SDS011;69145;45.544;10.214;2023-05-07T09:24:04;16.95;;;13.60;;
79677;SDS011;69145;45.544;10.214;2023-05-07T09:26:30;19.63;;;14.98;;
79677;SDS011;69145;45.544;10.214;2023-05-07T09:28:57;18.08;;;14.90;;
79677;SDS011;69145;45.544;10.214;2023-05-07T09:31:23;20.00;;;15.43;;
79677;SDS011;69145;45.544;10.214;2023-05-07T09:33:49;19.25;;;14.73;;
79677;SDS011;69145;45.544;10.214;2023-05-07T09:36:18;17.65;;;14.05;;
79677;SDS011;69145;45.544;10.214;2023-05-07T09:38:43;20.35;;;15.25;;
79677;SDS011;69145;45.544;10.214;2023-05-07T09:41:10;16.90;;;13.85;;
79677;SDS011;69145;45.544;10.214;2023-05-07T09:43:40;16.58;;;12.80;;
79677;SDS011;69145;45.544;10.214;2023-05-07T09:46:12;16.70;;;12.43;;
79677;SDS011;69145;45.544;10.214;2023-05-07T09:48:39;15.73;;;11.85;;
79677;SDS011;69145;45.544;10.214;2023-05-07T09:51:09;16.90;;;12.40;;
79677;SDS011;69145;45.544;10.214;2023-05-07T09:53:41;14.73;;;12.27;;
79677;SDS011;69145;45.544;10.214;2023-05-07T09:56:08;16.08;;;13.02;;
79677;SDS011;69145;45.544;10.214;2023-05-07T09:58:34;16.48;;;13.35;;
79677;SDS011;69145;45.544;10.214;2023-05-07T10:01:02;18.35;;;14.45;;
79677;SDS011;69145;45.544;10.214;2023-05-07T10:03:29;18.05;;;15.02;;
79677;SDS011;69145;45.544;10.214;2023-05-07T10:05:57;16.25;;;13.32;;
79677;SDS011;69145;45.544;10.214;2023-05-07T10:08:24;19.17;;;14.60;;
79677;SDS011;69145;45.544;10.214;2023-05-07T10:10:49;17.65;;;14.73;;
79677;SDS011;69145;45.544;10.214;2023-05-07T10:13:15;19.08;;;14.82;;
79677;SDS011;69145;45.544;10.214;2023-05-07T10:15:42;18.00;;;12.80;;
79677;SDS011;69145;45.544;10.214;2023-05-07T10:18:07;15.30;;;12.30;;
79677;SDS011;69145;45.544;10.214;2023-05-07T10:20:33;18.20;;;13.02;;
79677;SDS011;69145;45.544;10.214;2023-05-07T10:23:01;14.45;;;11.70;;
79677;SDS011;69145;45.544;10.214;2023-05-07T10:25:30;15.40;;;12.23;;
79677;SDS011;69145;45.544;10.214;2023-05-07T10:27:57;18.98;;;14.07;;
79677;SDS011;69145;45.544;10.214;2023-05-07T10:33:19;18.55;;;13.15;;
79677;SDS011;69145;45.544;10.214;2023-05-07T10:35:49;16.38;;;12.95;;
79677;SDS011;69145;45.544;10.214;2023-05-07T10:38:15;17.33;;;13.77;;
79677;SDS011;69145;45.544;10.214;2023-05-07T10:40:43;18.10;;;14.50;;
79677;SDS011;69145;45.544;10.214;2023-05-07T10:43:09;17.05;;;13.27;;
79677;SDS011;69145;45.544;10.214;2023-05-07T10:45:35;16.65;;;13.20;;
79677;SDS011;69145;45.544;10.214;2023-05-07T10:48:07;19.50;;;15.75;;
79677;SDS011;69145;45.544;10.214;2023-05-07T10:50:36;19.73;;;14.73;;
79677;SDS011;69145;45.544;10.214;2023-05-07T10:56:24;15.85;;;13.10;;
79677;SDS011;69145;45.544;10.214;2023-05-07T10:58:43;19.95;;;14.43;;
79677;SDS011;69145;45.544;10.214;2023-05-07T11:01:09;17.83;;;13.73;;
79677;SDS011;69145;45.544;10.214;2023-05-07T11:03:37;17.65;;;13.65;;
79677;SDS011;69145;45.544;10.214;2023-05-07T11:12:16;18.90;;;13.50;;
79677;SDS011;69145;45.544;10.214;2023-05-07T11:15:00;18.77;;;14.75;;
79677;SDS011;69145;45.544;10.214;2023-05-07T11:17:27;17.08;;;12.57;;
79677;SDS011;69145;45.544;10.214;2023-05-07T11:19:56;17.35;;;13.98;;
79677;SDS011;69145;45.544;10.214;2023-05-07T11:24:59;18.02;;;12.65;;
79677;SDS011;69145;45.544;10.214;2023-05-07T11:27:25;17.05;;;13.13;;
79677;SDS011;69145;45.544;10.214;2023-05-07T11:29:52;16.42;;;12.63;;
79677;SDS011;69145;45.544;10.214;2023-05-07T11:32:27;16.00;;;12.27;;
79677;SDS011;69145;45.544;10.214;2023-05-07T11:34:54;16.35;;;13.23;;
79677;SDS011;69145;45.544;10.214;2023-05-07T11:37:21;17.08;;;12.52;;
79677;SDS011;69145;45.544;10.214;2023-05-07T11:39:47;15.15;;;12.45;;
79677;SDS011;69145;45.544;10.214;2023-05-07T11:42:29;17.65;;;12.10;;
79677;SDS011;69145;45.544;10.214;2023-05-07T11:44:55;15.25;;;12.27;;
79677;SDS011;69145;45.544;10.214;2023-05-07T11:47:22;13.68;;;11.00;;
79677;SDS011;69145;45.544;10.214;2023-05-07T11:49:52;14.30;;;11.52;;
79677;SDS011;69145;45.544;10.214;2023-05-07T11:52:18;13.70;;;10.32;;
79677;SDS011;69145;45.544;10.214;2023-05-07T11:54:52;12.13;;;9.38;;
79677;SDS011;69145;45.544;10.214;2023-05-07T11:57:19;12.35;;;9.40;;
79677;SDS011;69145;45.544;10.214;2023-05-07T11:59:45;11.65;;;9.18;;
79677;SDS011;69145;45.544;10.214;2023-05-07T12:02:14;13.75;;;10.25;;
79677;SDS011;69145;45.544;10.214;2023-05-07T12:04:40;12.93;;;9.25;;
79677;SDS011;69145;45.544;10.214;2023-05-07T12:07:15;14.35;;;9.50;;
79677;SDS011;69145;45.544;10.214;2023-05-07T12:09:41;11.90;;;8.45;;
79677;SDS011;69145;45.544;10.214;2023-05-07T12:12:07;14.13;;;10.50;;
79677;SDS011;69145;45.544;10.214;2023-05-07T12:14:39;11.30;;;9.45;;
79677;SDS011;69145;45.544;10.214;2023-05-07T12:17:08;12.20;;;9.85;;
79677;SDS011;69145;45.544;10.214;2023-05-07T12:19:35;12.80;;;8.93;;
79677;SDS011;69145;45.544;10.214;2023-05-07T12:24:56;10.20;;;7.72;;
79677;SDS011;69145;45.544;10.214;2023-05-07T12:27:40;11.55;;;8.85;;
79677;SDS011;69145;45.544;10.214;2023-05-07T12:30:05;11.23;;;7.97;;
79677;SDS011;69145;45.544;10.214;2023-05-07T12:35:28;13.70;;;9.25;;
79677;SDS011;69145;45.544;10.214;2023-05-07T12:37:58;11.98;;;9.05;;
79677;SDS011;69145;45.544;10.214;2023-05-07T12:40:39;10.85;;;8.27;;
79677;SDS011;69145;45.544;10.214;2023-05-07T12:43:21;8.50;;;6.95;;
79677;SDS011;69145;45.544;10.214;2023-05-07T12:45:50;8.95;;;6.88;;
79677;SDS011;69145;45.544;10.214;2023-05-07T12:48:16;10.38;;;7.40;;
79677;SDS011;69145;45.544;10.214;2023-05-07T12:50:42;9.00;;;6.68;;
79677;SDS011;69145;45.544;10.214;2023-05-07T12:53:09;9.13;;;7.05;;
79677;SDS011;69145;45.544;10.214;2023-05-07T12:55:43;10.23;;;7.10;;
79677;SDS011;69145;45.544;10.214;2023-05-07T12:58:32;10.50;;;6.82;;
79677;SDS011;69145;45.544;10.214;2023-05-07T13:00:59;9.07;;;6.75;;
79677;SDS011;69145;45.544;10.214;2023-05-07T13:03:26;10.70;;;8.02;;
79677;SDS011;69145;45.544;10.214;2023-05-07T13:05:58;8.13;;;6.78;;
79677;SDS011;69145;45.544;10.214;2023-05-07T13:08:41;9.15;;;7.47;;
79677;SDS011;69145;45.544;10.214;2023-05-07T13:11:10;10.00;;;6.03;;
79677;SDS011;69145;45.544;10.214;2023-05-07T13:13:36;8.65;;;6.53;;
79677;SDS011;69145;45.544;10.214;2023-05-07T13:16:04;8.93;;;5.95;;
79677;SDS011;69145;45.544;10.214;2023-05-07T13:18:31;8.02;;;5.63;;
79677;SDS011;69145;45.544;10.214;2023-05-07T13:20:56;7.10;;;5.95;;
79677;SDS011;69145;45.544;10.214;2023-05-07T13:23:22;8.63;;;5.88;;
79677;SDS011;69145;45.544;10.214;2023-05-07T13:25:48;7.88;;;5.60;;
79677;SDS011;69145;45.544;10.214;2023-05-07T13:28:14;7.28;;;5.70;;
79677;SDS011;69145;45.544;10.214;2023-05-07T13:30:40;7.95;;;5.53;;
79677;SDS011;69145;45.544;10.214;2023-05-07T13:33:08;7.45;;;5.30;;
79677;SDS011;69145;45.544;10.214;2023-05-07T13:50:47;5.35;;;4.32;;
79677;SDS011;69145;45.544;10.214;2023-05-07T13:53:13;7.70;;;4.88;;
79677;SDS011;69145;45.544;10.214;2023-05-07T13:55:40;6.80;;;4.40;;
79677;SDS011;69145;45.544;10.214;2023-05-07T13:58:05;7.10;;;5.50;;
79677;SDS011;69145;45.544;10.214;2023-05-07T14:00:31;7.17;;;5.43;;
79677;SDS011;69145;45.544;10.214;2023-05-07T14:02:56;9.95;;;5.78;;
79677;SDS011;69145;45.544;10.214;2023-05-07T14:05:22;7.47;;;4.72;;
79677;SDS011;69145;45.544;10.214;2023-05-07T14:07:48;6.82;;;5.20;;
79677;SDS011;69145;45.544;10.214;2023-05-07T14:10:16;9.20;;;5.32;;
79677;SDS011;69145;45.544;10.214;2023-05-07T14:12:43;7.57;;;5.82;;
79677;SDS011;69145;45.544;10.214;2023-05-07T14:15:09;7.05;;;5.50;;
79677;SDS011;69145;45.544;10.214;2023-05-07T14:17:35;10.60;;;7.43;;
79677;SDS011;69145;45.544;10.214;2023-05-07T14:20:01;9.85;;;6.18;;
79677;SDS011;69145;45.544;10.214;2023-05-07T14:22:26;9.80;;;6.70;;
79677;SDS011;69145;45.544;10.214;2023-05-07T14:24:51;10.77;;;6.15;;
79677;SDS011;69145;45.544;10.214;2023-05-07T14:27:17;8.63;;;6.22;;
79677;SDS011;69145;45.544;10.214;2023-05-07T14:29:43;9.40;;;6.15;;
79677;SDS011;69145;45.544;10.214;2023-05-07T14:32:10;9.45;;;7.15;;
79677;SDS011;69145;45.544;10.214;2023-05-07T14:34:44;9.05;;;6.07;;
79677;SDS011;69145;45.544;10.214;2023-05-07T14:37:10;9.27;;;6.25;;
79677;SDS011;69145;45.544;10.214;2023-05-07T14:39:38;9.88;;;6.97;;
79677;SDS011;69145;45.544;10.214;2023-05-07T14:42:04;9.07;;;7.30;;
79677;SDS011;69145;45.544;10.214;2023-05-07T14:44:32;8.48;;;6.05;;
79677;SDS011;69145;45.544;10.214;2023-05-07T14:46:59;9.32;;;7.03;;
79677;SDS011;69145;45.544;10.214;2023-05-07T14:49:31;9.43;;;7.03;;
79677;SDS011;69145;45.544;10.214;2023-05-07T14:51:57;10.15;;;7.13;;
79677;SDS011;69145;45.544;10.214;2023-05-07T14:54:24;9.07;;;7.03;;
79677;SDS011;69145;45.544;10.214;2023-05-07T14:56:54;9.90;;;7.22;;
79677;SDS011;69145;45.544;10.214;2023-05-07T14:59:20;9.27;;;6.53;;
79677;SDS011;69145;45.544;10.214;2023-05-07T15:01:46;8.00;;;5.68;;
79677;SDS011;69145;45.544;10.214;2023-05-07T15:04:12;8.35;;;5.65;;
79677;SDS011;69145;45.544;10.214;2023-05-07T15:06:38;8.07;;;6.18;;
79677;SDS011;69145;45.544;10.214;2023-05-07T15:09:03;9.45;;;6.65;;
79677;SDS011;69145;45.544;10.214;2023-05-07T15:11:29;9.80;;;7.30;;
79677;SDS011;69145;45.544;10.214;2023-05-07T15:13:55;9.02;;;6.85;;
79677;SDS011;69145;45.544;10.214;2023-05-07T15:16:23;8.55;;;6.47;;
79677;SDS011;69145;45.544;10.214;2023-05-07T15:19:03;8.15;;;6.10;;
79677;SDS011;69145;45.544;10.214;2023-05-07T15:21:28;10.50;;;6.97;;
79677;SDS011;69145;45.544;10.214;2023-05-07T15:24:00;9.13;;;6.43;;